Time;durP1;ratioP1;P1;durP2;ratioP2;P2;SDS_P1;SDS_P2;PMS_P1;PMS_P2;Temp;Humidity;BMP_temperature;BMP_pressure;BME280_temperature;BME280_humidity;BME280_pressure;Samples;Min_cycle;Max_cycle;Signal;HPM_P1;HPM_P2
2023/11/03 00:00:32;;;;;;;0.85;0.55;;;;;;;;;;5070358;28;20073;-83
2023/11/03 00:02:59;;;;;;;0.52;0.40;;;;;;;;;;5068046;28;20481;-83
2023/11/03 00:05:25;;;;;;;0.40;0.40;;;;;;;;;;5056331;28;20047;-83
2023/11/03 00:07:51;;;;;;;0.70;0.60;;;;;;;;;;5082415;28;20059;-83
2023/11/03 00:10:18;;;;;;;0.63;0.55;;;;;;;;;;5090250;28;20536;-83
2023/11/03 00:12:44;;;;;;;0.68;0.60;;;;;;;;;;5088516;28;20113;-83
2023/11/03 00:15:10;;;;;;;0.38;0.38;;;;;;;;;;5088183;28;20081;-83
2023/11/03 00:17:39;;;;;;;1.00;0.50;;;8.50;99.90;;;;;;5088229;28;20039;-83
2023/11/03 00:20:14;;;;;;;0.50;0.47;;;8.40;99.90;;;;;;5088862;28;20024;-83
2023/11/03 00:22:40;;;;;;;0.40;0.40;;;;;;;;;;5088129;28;20042;-83
2023/11/03 00:25:11;;;;;;;0.50;0.50;;;8.40;99.90;;;;;;5088754;28;20477;-82
2023/11/03 00:27:37;;;;;;;0.50;0.50;;;;;;;;;;5075996;28;20025;-83
2023/11/03 00:30:07;;;;;;;0.40;0.40;;;;;;;;;;5079235;28;20035;-83
2023/11/03 00:32:33;;;;;;;0.30;0.30;;;;;;;;;;5068867;28;20028;-83
2023/11/03 00:34:59;;;;;;;0.40;0.40;;;;;;;;;;5074865;28;20032;-83
2023/11/03 00:37:25;;;;;;;0.80;0.80;;;;;;;;;;5082244;28;20031;-83
2023/11/03 00:39:52;;;;;;;0.40;0.40;;;;;;;;;;5083198;28;20016;-83
2023/11/03 00:42:17;;;;;;;1.23;0.60;;;;;;;;;;5085985;28;20066;-83
2023/11/03 00:44:43;;;;;;;0.57;0.57;;;;;;;;;;5088410;28;20052;-84
2023/11/03 00:47:10;;;;;;;0.50;0.50;;;;;;;;;;5087022;28;20488;-83
2023/11/03 00:49:39;;;;;;;0.20;0.20;;;;;;;;;;5089635;28;20090;-84
2023/11/03 00:52:09;;;;;;;1.05;0.40;;;;;;;;;;5088225;28;20032;-84
2023/11/03 00:54:35;;;;;;;3.20;0.47;;;;;;;;;;5088598;28;20533;-84
2023/11/03 00:57:01;;;;;;;0.65;0.60;;;;;;;;;;5089175;28;20100;-83
2023/11/03 00:59:27;;;;;;;0.30;0.30;;;;;;;;;;5088973;28;20153;-83
2023/11/03 01:01:53;;;;;;;0.75;0.43;;;;;;;;;;5089321;28;20488;-84
2023/11/03 01:04:20;;;;;;;0.30;0.30;;;;;;;;;;5088658;28;20053;-84
2023/11/03 01:06:46;;;;;;;0.30;0.30;;;8.30;95.50;;;;;;5082651;28;20028;-83
2023/11/03 01:09:12;;;;;;;2.85;0.52;;;;;;;;;;5083263;28;20523;-84
2023/11/03 01:11:39;;;;;;;0.57;0.43;;;;;;;;;;5088832;28;20118;-83
2023/11/03 01:14:05;;;;;;;0.40;0.40;;;;;;;;;;5086102;28;20158;-83
2023/11/03 01:16:33;;;;;;;0.47;0.40;;;;;;;;;;5088874;28;20270;-83
2023/11/03 01:19:04;;;;;;;0.30;0.30;;;;;;;;;;5087477;28;20089;-83
2023/11/03 01:21:30;;;;;;;0.40;0.40;;;;;;;;;;5067621;28;20107;-83
2023/11/03 01:23:56;;;;;;;0.50;0.50;;;;;;;;;;5087060;28;20536;-83
2023/11/03 01:26:25;;;;;;;0.45;0.45;;;;;;;;;;5084344;28;20100;-83
2023/11/03 01:28:51;;;;;;;0.40;0.40;;;;;;;;;;5084362;28;20063;-84
2023/11/03 01:31:17;;;;;;;0.40;0.40;;;;;;;;;;5078793;28;20028;-83
2023/11/03 01:33:44;;;;;;;0.47;0.47;;;;;;;;;;5092087;28;20028;-84
2023/11/03 01:36:11;;;;;;;0.43;0.43;;;;;;;;;;5091746;28;20035;-83
2023/11/03 01:38:38;;;;;;;0.40;0.40;;;;;;;;;;5087563;28;20179;-83
2023/11/03 01:41:05;;;;;;;0.40;0.40;;;7.80;95.90;;;;;;5091811;28;20044;-83
2023/11/03 01:43:32;;;;;;;0.40;0.40;;;;;;;;;;5092170;28;20469;-84
2023/11/03 01:45:58;;;;;;;0.52;0.52;;;7.60;96.70;;;;;;5091409;28;20040;-83
2023/11/03 01:48:26;;;;;;;0.40;0.40;;;7.50;97.20;;;;;;5092307;28;20501;-83
2023/11/03 01:50:53;;;;;;;0.40;0.40;;;;;;;;;;5064819;28;20032;-84
2023/11/03 01:53:19;;;;;;;1.20;0.70;;;;;;;;;;5089994;28;20085;-83
2023/11/03 01:55:46;;;;;;;0.30;0.30;;;;;;;;;;5086052;28;20485;-83
2023/11/03 01:58:14;;;;;;;0.50;0.50;;;7.10;99.90;;;;;;5084787;28;20110;-84
2023/11/03 02:00:40;;;;;;;0.30;0.30;;;;;;;;;;5091390;28;20028;-84
2023/11/03 02:03:07;;;;;;;0.38;0.38;;;;;;;;;;5089181;28;20032;-84
2023/11/03 02:05:33;;;;;;;0.40;0.40;;;;;;;;;;5078579;28;20392;-83
2023/11/03 02:07:59;;;;;;;0.40;0.40;;;;;;;;;;5089508;28;20524;-84
2023/11/03 02:10:25;;;;;;;0.30;0.30;;;;;;;;;;5089165;28;20040;-83
2023/11/03 02:12:51;;;;;;;0.40;0.40;;;;;;;;;;5088389;28;20036;-84
2023/11/03 02:15:17;;;;;;;0.63;0.52;;;;;;;;;;5088622;28;20114;-83
2023/11/03 02:17:43;;;;;;;0.40;0.40;;;;;;;;;;5087417;28;20062;-83
2023/11/03 02:20:09;;;;;;;0.40;0.40;;;;;;;;;;5077409;28;20040;-83
2023/11/03 02:22:35;;;;;;;1.03;0.70;;;10.30;99.70;;;;;;5086915;28;20053;-84
2023/11/03 02:25:01;;;;;;;0.82;0.60;;;;;;;;;;5089307;28;20452;-84
2023/11/03 02:27:27;;;;;;;0.50;0.50;;;;;;;;;;5074955;28;20047;-84
2023/11/03 02:29:54;;;;;;;0.45;0.45;;;;;;;;;;5080607;28;20024;-84
2023/11/03 02:32:19;;;;;;;0.77;0.68;;;6.30;99.90;;;;;;5071248;28;20049;-83
2023/11/03 02:34:45;;;;;;;0.88;0.60;;;;;;;;;;5071524;28;20017;-84
2023/11/03 02:37:11;;;;;;;0.55;0.55;;;;;;;;;;5071242;28;20104;-83
2023/11/03 02:39:40;;;;;;;0.60;0.60;;;;;;;;;;5069623;28;20027;-83
2023/11/03 02:42:06;;;;;;;0.47;0.47;;;;;;;;;;5070985;28;20020;-84
2023/11/03 02:44:32;;;;;;;0.40;0.40;;;;;;;;;;5071257;28;20049;-84
2023/11/03 02:46:59;;;;;;;0.60;0.45;;;;;;;;;;5071803;28;20039;-84
2023/11/03 02:49:25;;;;;;;0.60;0.60;;;;;;;;;;5071016;28;20024;-84
2023/11/03 02:51:51;;;;;;;0.40;0.40;;;;;;;;;;5071524;28;20036;-84
2023/11/03 02:54:17;;;;;;;1.17;0.50;;;;;;;;;;5071339;28;20025;-84
2023/11/03 02:56:43;;;;;;;1.85;0.65;;;;;;;;;;5071171;28;20055;-84
2023/11/03 02:59:09;;;;;;;0.65;0.65;;;5.90;99.90;;;;;;5071500;28;20029;-83
2023/11/03 03:01:36;;;;;;;0.68;0.40;;;;;;;;;;5069182;28;20555;-83
2023/11/03 03:04:02;;;;;;;;;;;5.90;99.90;;;;;;5071041;28;20020;-83
2023/11/03 03:06:28;;;;;;;0.40;0.40;;;;;;;;;;5071715;28;19905;-84
2023/11/03 03:08:54;;;;;;;0.40;0.40;;;;;;;;;;5071694;28;20028;-84
2023/11/03 03:11:21;;;;;;;0.40;0.40;;;;;;;;;;5071545;28;20040;-84
2023/11/03 03:13:46;;;;;;;1.00;0.77;;;;;;;;;;5070380;28;20017;-84
2023/11/03 03:16:17;;;;;;;0.40;0.40;;;6.20;99.90;;;;;;5071947;28;20089;-83
2023/11/03 03:18:42;;;;;;;0.40;0.40;;;;;;;;;;5071400;28;20104;-83
2023/11/03 03:21:08;;;;;;;0.40;0.40;;;;;;;;;;5071155;28;20610;-83
2023/11/03 03:23:34;;;;;;;0.40;0.40;;;;;;;;;;5071079;28;20032;-83
2023/11/03 03:26:00;;;;;;;0.55;0.55;;;;;;;;;;5071935;28;20100;-83
2023/11/03 03:28:26;;;;;;;1.85;0.50;;;;;;;;;;5071185;28;20032;-83
2023/11/03 03:30:52;;;;;;;0.40;0.40;;;;;;;;;;5067851;28;20037;-84
2023/11/03 03:33:18;;;;;;;0.47;0.47;;;;;;;;;;5067899;28;20082;-83
2023/11/03 03:35:44;;;;;;;0.43;0.43;;;;;;;;;;5070377;28;20571;-83
2023/11/03 03:38:10;;;;;;;0.50;0.50;;;;;;;;;;5070509;28;20505;-83
2023/11/03 03:40:36;;;;;;;0.68;0.40;;;;;;;;;;5070581;28;20031;-83
2023/11/03 03:43:02;;;;;;;0.40;0.40;;;;;;;;;;5069871;28;20040;-83
2023/11/03 03:45:29;;;;;;;0.40;0.40;;;;;;;;;;5071905;28;20020;-83
2023/11/03 03:47:55;;;;;;;4.38;0.80;;;;;;;;;;5070046;28;20036;-83
2023/11/03 03:50:21;;;;;;;0.40;0.40;;;;;;;;;;5085050;28;20162;-84
2023/11/03 03:52:47;;;;;;;0.40;0.40;;;;;;;;;;5069620;28;20028;-83
2023/11/03 03:55:13;;;;;;;1.23;0.55;;;;;;;;;;5070069;28;20066;-83
2023/11/03 03:57:39;;;;;;;0.40;0.40;;;;;;;;;;5070210;28;20374;-83
2023/11/03 04:00:07;;;;;;;0.40;0.40;;;;;;;;;;5066600;28;20074;-84
2023/11/03 04:02:32;;;;;;;;;;;6.90;99.40;;;;;;5070691;28;20340;-84
2023/11/03 04:04:58;;;;;;;0.47;0.47;;;;;;;;;;5074148;28;19915;-84
2023/11/03 04:07:24;;;;;;;0.52;0.52;;;;;;;;;;5088202;28;20055;-83
2023/11/03 04:09:51;;;;;;;1.83;0.80;;;6.80;99.80;;;;;;5069721;28;20052;-84
2023/11/03 04:12:17;;;;;;;0.50;0.50;;;;;;;;;;5082965;28;20134;-83
2023/11/03 04:14:43;;;;;;;2.47;2.15;;;;;;;;;;5068102;28;20270;-83
2023/11/03 04:17:09;;;;;;;0.73;0.73;;;;;;;;;;5068515;28;20029;-84
2023/11/03 04:19:35;;;;;;;0.60;0.60;;;;;;;;;;5069172;28;20024;-84
2023/11/03 04:22:01;;;;;;;2.83;1.90;;;;;;;;;;5081620;28;20459;-84
2023/11/03 04:24:26;;;;;;;0.93;0.90;;;6.50;99.90;;;;;;5083030;28;20016;-84
2023/11/03 04:26:53;;;;;;;0.30;0.30;;;;;;;;;;5069752;28;20048;-84
2023/11/03 04:29:19;;;;;;;0.50;0.50;;;;;;;;;;5069756;28;20103;-84
2023/11/03 04:31:45;;;;;;;0.52;0.50;;;;;;;;;;5069130;28;20431;-84
2023/11/03 04:34:11;;;;;;;7.85;0.80;;;;;;;;;;5070096;28;20024;-84
2023/11/03 04:36:37;;;;;;;2.67;0.80;;;;;;;;;;5086435;28;20035;-83
2023/11/03 04:39:04;;;;;;;0.57;0.57;;;;;;;;;;5089010;28;20021;-84
2023/11/03 04:41:31;;;;;;;3.05;1.48;;;;;;;;;;5088057;28;20488;-83
2023/11/03 04:43:56;;;;;;;1.83;1.30;;;6.00;99.90;;;;;;5088467;28;20505;-83
2023/11/03 04:46:23;;;;;;;1.02;0.93;;;;;;;;;;5088106;28;20042;-83
2023/11/03 04:48:49;;;;;;;0.60;0.60;;;;;;;;;;5089755;28;20457;-83
2023/11/03 04:51:16;;;;;;;0.38;0.38;;;;;;;;;;5085900;28;20459;-83
2023/11/03 04:53:43;;;;;;;13.63;0.93;;;5.70;99.90;;;;;;5089048;28;20024;-83
2023/11/03 04:56:09;;;;;;;0.40;0.40;;;5.70;99.90;;;;;;5089255;28;20087;-83
2023/11/03 04:58:35;;;;;;;0.40;0.40;;;;;;;;;;5076198;28;20047;-83
2023/11/03 05:01:01;;;;;;;0.40;0.40;;;;;;;;;;5069109;28;20115;-83
2023/11/03 05:03:27;;;;;;;0.50;0.50;;;;;;;;;;5070105;28;20029;-83
2023/11/03 05:05:52;;;;;;;2.58;0.63;;;6.50;99.90;;;;;;5070003;28;20020;-84
2023/11/03 05:08:19;;;;;;;0.40;0.40;;;;;;;;;;5068643;28;20448;-83
2023/11/03 05:10:45;;;;;;;0.95;0.77;;;;;;;;;;5088376;28;20024;-83
2023/11/03 05:13:11;;;;;;;1.10;0.80;;;;;;;;;;5075930;28;20229;-83
2023/11/03 05:15:36;;;;;;;1.88;1.27;;;5.80;99.90;;;;;;5067269;28;20029;-84
2023/11/03 05:18:02;;;;;;;1.83;0.80;;;;;;;;;;5081177;28;20486;-84
2023/11/03 05:20:28;;;;;;;0.70;0.70;;;;;;;;;;5087137;28;20435;-83
2023/11/03 05:22:54;;;;;;;0.55;0.55;;;;;;;;;;5088655;28;20024;-84
2023/11/03 05:25:20;;;;;;;7.45;0.75;;;;;;;;;;5087593;28;20020;-84
2023/11/03 05:27:47;;;;;;;1.05;0.77;;;;;;;;;;5087254;28;20028;-84
2023/11/03 05:30:14;;;;;;;1.38;0.60;;;;;;;;;;5087764;28;20047;-83
2023/11/03 05:32:40;;;;;;;0.63;0.63;;;;;;;;;;5085538;28;20032;-83
2023/11/03 05:35:06;;;;;;;0.70;0.70;;;;;;;;;;5086728;28;20093;-84
2023/11/03 05:37:32;;;;;;;1.35;0.70;;;;;;;;;;5091839;28;20506;-84
2023/11/03 05:39:58;;;;;;;0.70;0.55;;;6.00;99.90;;;;;;5090575;28;20500;-84
2023/11/03 05:42:24;;;;;;;0.60;0.60;;;;;;;;;;5090659;28;20028;-83
2023/11/03 05:44:50;;;;;;;0.60;0.60;;;;;;;;;;5089923;28;20040;-84
2023/11/03 05:47:16;;;;;;;1.08;0.60;;;;;;;;;;5090437;28;20031;-84
2023/11/03 05:49:42;;;;;;;0.80;0.80;;;;;;;;;;5090687;28;20396;-83
2023/11/03 05:52:08;;;;;;;0.77;0.73;;;;;;;;;;5090132;28;20046;-84
2023/11/03 05:54:34;;;;;;;0.85;0.85;;;;;;;;;;5090341;28;20016;-84
2023/11/03 05:57:00;;;;;;;0.93;0.70;;;;;;;;;;5086721;28;20493;-83
2023/11/03 05:59:26;;;;;;;0.50;0.50;;;;;;;;;;5090808;28;20035;-83
2023/11/03 06:01:52;;;;;;;0.52;0.52;;;;;;;;;;5091049;28;20040;-84
2023/11/03 06:04:18;;;;;;;1.88;0.65;;;;;;;;;;5088795;28;20046;-84
2023/11/03 06:06:44;;;;;;;2.15;0.98;;;;;;;;;;5090998;28;20025;-84
2023/11/03 06:09:11;;;;;;;0.93;0.82;;;6.30;99.90;;;;;;5072026;28;20033;-84
2023/11/03 06:11:37;;;;;;;1.65;1.15;;;;;;;;;;5084803;28;20036;-84
2023/11/03 06:14:04;;;;;;;2.13;0.70;;;;;;;;;;5077606;28;20030;-84
2023/11/03 06:16:30;;;;;;;1.17;0.95;;;;;;;;;;5078528;28;20032;-81
2023/11/03 06:18:56;;;;;;;0.55;0.55;;;;;;;;;;5090025;28;20020;-84
2023/11/03 06:21:22;;;;;;;0.70;0.70;;;;;;;;;;5090948;28;20039;-84
2023/11/03 06:23:48;;;;;;;0.80;0.80;;;;;;;;;;5077777;28;20020;-84
2023/11/03 06:26:14;;;;;;;1.38;0.85;;;;;;;;;;5086197;28;20469;-83
2023/11/03 06:28:40;;;;;;;0.70;0.70;;;;;;;;;;5077753;28;20046;-83
2023/11/03 06:31:07;;;;;;;0.63;0.63;;;;;;;;;;5089767;28;20039;-84
2023/11/03 06:33:33;;;;;;;0.50;0.50;;;;;;;;;;5078264;28;20016;-84
2023/11/03 06:35:59;;;;;;;1.67;0.95;;;;;;;;;;5089689;28;20487;-84
2023/11/03 06:38:26;;;;;;;0.60;0.60;;;;;;;;;;5090838;28;20017;-84
2023/11/03 06:40:52;;;;;;;0.85;0.80;;;;;;;;;;5089629;28;20555;-84
2023/11/03 06:43:18;;;;;;;0.52;0.52;;;;;;;;;;5090749;28;20119;-84
2023/11/03 06:45:44;;;;;;;0.40;0.40;;;;;;;;;;5090626;28;20036;-84
2023/11/03 06:48:10;;;;;;;0.50;0.50;;;;;;;;;;5077952;28;20089;-84
2023/11/03 06:50:36;;;;;;;0.80;0.80;;;;;;;;;;5088741;28;20040;-83
2023/11/03 06:53:03;;;;;;;4.57;0.70;;;;;;;;;;5090540;28;20052;-83
2023/11/03 06:55:29;;;;;;;0.75;0.75;;;;;;;;;;5089601;28;20445;-84
2023/11/03 06:57:55;;;;;;;1.55;0.80;;;;;;;;;;5077981;28;20454;-84
2023/11/03 07:00:22;;;;;;;0.50;0.50;;;;;;;;;;5089792;28;20020;-84
2023/11/03 07:02:47;;;;;;;0.85;0.63;;;;;;;;;;5086687;28;20112;-85
2023/11/03 07:05:13;;;;;;;0.40;0.40;;;;;;;;;;5087542;28;20648;-83
2023/11/03 07:07:40;;;;;;;1.17;0.73;;;;;;;;;;5082128;28;20031;-84
2023/11/03 07:10:06;;;;;;;0.50;0.50;;;6.60;99.90;;;;;;5067926;28;20108;-83
2023/11/03 07:12:32;;;;;;;0.82;0.63;;;6.90;99.90;;;;;;5080372;28;20036;-83
2023/11/03 07:14:58;;;;;;;0.60;0.60;;;;;;;;;;5072538;28;20035;-83
2023/11/03 07:17:24;;;;;;;0.90;0.90;;;;;;;;;;5076455;28;20097;-83
2023/11/03 07:19:50;;;;;;;0.60;0.60;;;;;;;;;;5072743;28;20112;-83
2023/11/03 07:22:16;;;;;;;1.05;0.80;;;;;;;;;;5070154;28;20103;-83
2023/11/03 07:24:42;;;;;;;0.95;0.60;;;;;;;;;;5069775;28;20031;-83
2023/11/03 07:27:08;;;;;;;0.93;0.70;;;;;;;;;;5069524;28;20068;-84
2023/11/03 07:29:35;;;;;;;1.75;0.95;;;;;;;;;;5069792;28;20282;-85
2023/11/03 07:32:01;;;;;;;5.22;0.98;;;;;;;;;;5057630;28;20047;-83
2023/11/03 07:34:27;;;;;;;0.47;0.47;;;;;;;;;;5058115;28;20166;-83
2023/11/03 07:36:52;;;;;;;0.60;0.60;;;8.60;98.40;;;;;;5068104;28;20032;-81
2023/11/03 07:39:18;;;;;;;0.50;0.50;;;;;;;;;;5067700;28;20496;-81
2023/11/03 07:41:44;;;;;;;0.73;0.70;;;;;;;;;;5069781;28;20035;-83
2023/11/03 07:44:12;;;;;;;0.80;0.80;;;;;;;;;;5063652;28;20044;-83
2023/11/03 07:46:38;;;;;;;;;;;8.80;91.90;;;;;;5069197;28;20031;-83
2023/11/03 07:49:04;;;;;;;5.63;0.80;;;;;;;;;;5071498;28;20296;-84
2023/11/03 07:51:30;;;;;;;0.77;0.77;;;;;;;;;;5068805;28;20044;-84
2023/11/03 07:53:57;;;;;;;0.90;0.90;;;;;;;;;;5062883;28;20503;-84
2023/11/03 07:56:23;;;;;;;1.70;1.60;;;;;;;;;;5075401;28;20051;-80
2023/11/03 07:58:49;;;;;;;0.60;0.60;;;19.20;75.80;;;;;;5069163;28;20067;-82
2023/11/03 08:01:15;;;;;;;0.73;0.50;;;;;;;;;;5070106;28;20025;-82
2023/11/03 08:03:41;;;;;;;0.63;0.63;;;;;;;;;;5064527;28;20234;-81
2023/11/03 08:06:07;;;;;;;2.20;0.80;;;;;;;;;;5067202;28;20537;-81
2023/11/03 08:08:34;;;;;;;2.33;0.93;;;;;;;;;;5066557;28;20017;-81
2023/11/03 08:11:03;;;;;;;4.32;1.17;;;;;;;;;;5069640;28;20052;-81
2023/11/03 08:13:29;;;;;;;1.08;0.98;;;;;;;;;;5063999;28;20610;-81
2023/11/03 08:15:55;;;;;;;0.55;0.55;;;;;;;;;;5067478;28;20029;-82
2023/11/03 08:18:23;;;;;;;0.88;0.82;;;;;;;;;;5070839;28;20056;-82
2023/11/03 08:20:49;;;;;;;2.35;0.85;;;;;;;;;;5070617;28;20031;-82
2023/11/03 08:23:15;;;;;;;1.03;0.93;;;;;;;;;;5061769;28;20033;-81
2023/11/03 08:25:43;;;;;;;1.85;1.10;;;;;;;;;;5066618;28;20021;-84
2023/11/03 08:28:09;;;;;;;1.65;0.65;;;;;;;;;;5067307;28;20674;-82
2023/11/03 08:30:35;;;;;;;1.30;1.20;;;;;;;;;;5066337;28;20040;-85
2023/11/03 08:33:01;;;;;;;2.45;1.40;;;;;;;;;;5065778;28;20267;-80
2023/11/03 08:35:27;;;;;;;0.70;0.70;;;;;;;;;;5065074;28;20029;-81
2023/11/03 08:37:55;;;;;;;1.85;0.73;;;;;;;;;;5068035;28;20078;-81
2023/11/03 08:40:21;;;;;;;;;;;17.20;58.30;;;;;;5057350;28;20033;-83
2023/11/03 08:42:47;;;;;;;3.80;1.08;;;;;;;;;;5063314;28;19971;-83
2023/11/03 08:45:14;;;;;;;3.13;1.00;;;20.90;53.50;;;;;;5062487;28;20206;-82
2023/11/03 08:47:43;;;;;;;3.70;1.00;;;;;;;;;;5070360;28;20140;-83
2023/11/03 08:50:13;;;;;;;2.35;0.90;;;22.10;50.20;;;;;;5066473;28;20032;-82
2023/11/03 08:52:40;;;;;;;3.00;2.30;;;;;;;;;;5049858;28;20590;-82
2023/11/03 08:55:07;;;;;;;2.70;1.20;;;21.00;63.50;;;;;;5062637;28;20045;-83
2023/11/03 08:57:37;;;;;;;1.73;1.20;;;21.90;49.60;;;;;;5069596;28;20063;-83
2023/11/03 09:00:09;;;;;;;3.90;1.23;;;21.80;44.00;;;;;;5064210;28;20094;-83
2023/11/03 09:02:46;;;;;;;3.40;1.55;;;25.70;44.40;;;;;;5071111;28;20082;-82
2023/11/03 09:05:12;;;;;;;1.20;0.68;;;25.30;42.70;;;;;;5064353;28;20374;-83
2023/11/03 09:07:42;;;;;;;1.27;0.93;;;26.60;39.90;;;;;;5077889;28;20504;-83
2023/11/03 09:10:11;;;;;;;2.55;0.70;;;25.20;41.70;;;;;;5074360;28;20274;-83
2023/11/03 09:12:40;;;;;;;0.40;0.40;;;23.40;41.40;;;;;;5073554;28;20448;-82
2023/11/03 09:15:07;;;;;;;1.45;0.88;;;;;;;;;;5072630;28;20040;-82
2023/11/03 09:17:33;;;;;;;0.90;0.68;;;;;;;;;;5070741;28;20123;-82
2023/11/03 09:19:59;;;;;;;0.80;0.77;;;;;;;;;;5071907;28;20035;-82
2023/11/03 09:22:27;;;;;;;2.53;1.08;;;24.80;38.40;;;;;;5073264;28;20023;-82
2023/11/03 09:24:57;;;;;;;0.82;0.80;;;28.50;35.90;;;;;;5061764;28;20430;-82
2023/11/03 09:27:24;;;;;;;1.17;0.90;;;31.60;33.00;;;;;;5073277;28;20393;-82
2023/11/03 09:29:50;;;;;;;0.63;0.63;;;;;;;;;;5077510;28;20024;-82
2023/11/03 09:32:16;;;;;;;2.37;0.70;;;37.00;30.00;;;;;;5067573;28;20405;-82
2023/11/03 09:34:42;;;;;;;0.50;0.50;;;;;;;;;;5065776;28;20262;-82
2023/11/03 09:37:08;;;;;;;1.10;0.70;;;;;;;;;;5066295;28;20043;-83
2023/11/03 09:39:35;;;;;;;2.30;0.40;;;;;;;;;;5072159;28;20098;-83
2023/11/03 09:42:03;;;;;;;0.65;0.30;;;42.40;24.50;;;;;;5070117;28;20033;-83
2023/11/03 09:44:33;;;;;;;0.40;0.40;;;42.80;24.40;;;;;;5062357;28;20044;-83
2023/11/03 09:47:03;;;;;;;1.10;0.30;;;43.00;24.90;;;;;;5075341;28;20107;-83
2023/11/03 09:49:29;;;;;;;0.10;0.03;;;42.40;24.70;;;;;;5070607;28;20040;-82
2023/11/03 09:52:05;;;;;;;;;;;42.40;25.10;;;;;;5064431;28;20424;-83
2023/11/03 09:54:32;;;;;;;0.73;0.10;;;35.40;25.40;;;;;;5063934;28;20030;-84
2023/11/03 09:57:08;;;;;;;0.25;0.10;;;31.50;26.70;;;;;;5065743;28;20036;-85
2023/11/03 09:59:35;;;;;;;0.32;0.15;;;28.20;37.80;;;;;;5058425;28;20025;-86
2023/11/03 10:02:09;;;;;;;1.55;0.20;;;24.90;28.70;;;;;;5065037;28;20035;-86
2023/11/03 10:04:38;;;;;;;2.33;0.40;;;22.60;31.70;;;;;;5052971;28;20042;-85
2023/11/03 10:07:04;;;;;;;1.25;0.30;;;;;;;;;;5073892;28;20024;-82
2023/11/03 10:09:30;;;;;;;1.00;0.50;;;;;;;;;;5074041;28;20127;-81
2023/11/03 10:11:56;;;;;;;1.63;0.70;;;20.50;40.00;;;;;;5070439;28;20115;-82
2023/11/03 10:14:24;;;;;;;0.80;0.40;;;;;;;;;;5063523;28;20033;-81
2023/11/03 10:16:51;;;;;;;;;;;20.00;36.50;;;;;;5060822;28;20055;-80
2023/11/03 10:19:19;;;;;;;0.50;0.50;;;;;;;;;;5057167;28;19908;-80
2023/11/03 10:21:47;;;;;;;0.68;0.60;;;17.10;39.10;;;;;;5072038;28;20081;-81
2023/11/03 10:24:15;;;;;;;1.50;0.80;;;;;;;;;;5059391;28;20083;-81
2023/11/03 10:26:41;;;;;;;0.90;0.60;;;;;;;;;;5068466;28;20040;-81
2023/11/03 10:29:07;;;;;;;0.95;0.63;;;;;;;;;;5067731;28;20070;-82
2023/11/03 10:31:33;;;;;;;0.68;0.65;;;;;;;;;;5068482;28;20086;-82
2023/11/03 10:33:59;;;;;;;1.35;0.88;;;;;;;;;;5060494;28;20024;-86
2023/11/03 10:36:28;;;;;;;0.93;0.73;;;;;;;;;;5080342;28;20414;-85
2023/11/03 10:38:54;;;;;;;1.80;0.90;;;;;;;;;;5069041;28;20032;-83
2023/11/03 10:41:21;;;;;;;3.70;0.70;;;;;;;;;;5076217;28;20031;-81
2023/11/03 10:43:55;;;;;;;1.13;0.90;;;14.20;45.60;;;;;;5060840;28;20045;-81
2023/11/03 10:46:33;;;;;;;4.75;0.57;;;14.20;45.30;;;;;;5069658;28;20553;-82
2023/11/03 10:49:24;;;;;;;0.60;0.60;;;14.10;45.60;;;;;;5070450;28;20481;-82
2023/11/03 10:52:13;;;;;;;3.42;1.10;;;14.20;45.80;;;;;;5070824;28;20025;-82
2023/11/03 10:55:18;;;;;;;0.60;0.60;;;15.00;60.60;;;;;;5023877;28;20700;-82
2023/11/03 10:57:44;;;;;;;0.47;0.47;;;;;;;;;;5031006;28;20501;-82
2023/11/03 11:00:31;;;;;;;0.43;0.43;;;15.10;45.60;;;;;;5028261;28;20589;-82
2023/11/03 11:03:23;;;;;;;4.47;0.68;;;15.30;50.60;;;;;;5021815;28;20036;-82
2023/11/03 11:06:11;;;;;;;1.48;0.85;;;14.20;51.20;;;;;;5025585;28;20410;-82
2023/11/03 11:08:41;;;;;;;0.70;0.68;;;13.80;46.00;;;;;;5027688;28;20049;-82
2023/11/03 11:11:11;;;;;;;0.50;0.50;;;;;;;;;;5033940;28;20123;-83
2023/11/03 11:13:41;;;;;;;0.82;0.70;;;13.20;47.40;;;;;;5020036;28;20036;-82
2023/11/03 11:16:08;;;;;;;0.77;0.70;;;;;;;;;;5026225;28;20051;-83
2023/11/03 11:18:42;;;;;;;0.50;0.50;;;12.40;49.40;;;;;;5036497;28;20037;-83
2023/11/03 11:21:10;;;;;;;0.50;0.50;;;;;;;;;;5024014;28;20128;-83
2023/11/03 11:23:38;;;;;;;0.60;0.52;;;11.80;51.60;;;;;;5019736;28;20979;-82
2023/11/03 11:26:18;;;;;;;0.57;0.52;;;11.40;54.00;;;;;;5025798;28;20301;-83
2023/11/03 11:28:44;;;;;;;0.45;0.45;;;;;;;;;;5025711;28;20025;-83
2023/11/03 11:31:25;;;;;;;0.70;0.70;;;11.20;54.20;;;;;;5042114;28;20524;-82
2023/11/03 11:34:12;;;;;;;3.55;1.17;;;11.20;54.70;;;;;;5060727;28;20032;-82
2023/11/03 11:36:39;;;;;;;0.70;0.70;;;;;;;;;;5075082;28;20568;-83
2023/11/03 11:39:13;;;;;;;0.70;0.70;;;11.20;56.60;;;;;;5073846;28;20085;-83
2023/11/03 11:41:45;;;;;;;0.50;0.50;;;11.20;57.40;;;;;;5066542;28;20021;-83
2023/11/03 11:44:11;;;;;;;0.93;0.90;;;;;;;;;;5062938;28;20048;-83
2023/11/03 11:46:40;;;;;;;0.50;0.50;;;11.20;56.00;;;;;;5072427;28;20426;-82
2023/11/03 11:49:06;;;;;;;0.68;0.68;;;;;;;;;;5080768;28;20028;-83
2023/11/03 11:51:33;;;;;;;0.45;0.45;;;;;;;;;;5071795;28;20082;-81
2023/11/03 11:54:01;;;;;;;1.48;1.05;;;10.90;56.60;;;;;;5064683;28;20025;-82
2023/11/03 11:56:27;;;;;;;2.65;1.20;;;;;;;;;;5076827;28;20025;-81
2023/11/03 11:58:54;;;;;;;0.75;0.68;;;10.60;57.60;;;;;;5076461;28;20123;-80
2023/11/03 12:01:22;;;;;;;1.85;0.80;;;10.40;58.40;;;;;;5068670;28;20036;-83
2023/11/03 12:03:48;;;;;;;;;;;10.30;59.70;;;;;;5062818;28;20430;-85
2023/11/03 12:06:14;;;;;;;2.05;1.02;;;;;;;;;;5069457;28;20348;-84
2023/11/03 12:08:40;;;;;;;0.80;0.80;;;;;;;;;;5071591;28;20025;-86
2023/11/03 12:11:07;;;;;;;0.75;0.75;;;;;;;;;;5079224;28;20486;-81
2023/11/03 12:13:33;;;;;;;0.80;0.80;;;;;;;;;;5064011;28;20602;-81
2023/11/03 12:16:00;;;;;;;0.85;0.85;;;;;;;;;;5073019;28;20052;-80
2023/11/03 12:18:26;;;;;;;0.60;0.60;;;;;;;;;;5073903;28;20116;-86
2023/11/03 12:21:02;;;;;;;0.50;0.50;;;10.30;61.20;;;;;;5069715;28;20367;-81
2023/11/03 12:23:31;;;;;;;0.70;0.70;;;10.50;68.40;;;;;;5060779;28;20044;-82
2023/11/03 12:26:02;;;;;;;0.65;0.65;;;;;;;;;;5072619;28;20105;-88
2023/11/03 12:28:30;;;;;;;3.22;0.77;;;10.50;60.50;;;;;;5075474;28;20579;-88
2023/11/03 12:30:59;;;;;;;1.02;1.02;;;10.40;60.90;;;;;;5069256;28;20020;-84
2023/11/03 12:33:27;;;;;;;0.73;0.60;;;10.50;61.20;;;;;;5066693;28;20132;-86
2023/11/03 12:35:54;;;;;;;1.05;0.80;;;10.60;61.60;;;;;;5067061;28;20485;-81
2023/11/03 12:38:20;;;;;;;0.70;0.70;;;10.70;61.50;;;;;;5070031;28;20028;-83
2023/11/03 12:40:47;;;;;;;0.80;0.80;;;;;;;;;;5074342;28;20028;-87
2023/11/03 12:43:14;;;;;;;0.60;0.60;;;10.90;61.60;;;;;;5073625;28;20068;-90
2023/11/03 12:45:41;;;;;;;1.05;0.90;;;;;;;;;;5071598;28;20028;-83
2023/11/03 12:48:25;;;;;;;1.73;0.90;;;;;;;;;;5072327;28;20107;-89
2023/11/03 12:50:52;;;;;;;1.75;1.00;;;;;;;;;;5076187;28;20074;-81
2023/11/03 12:53:18;;;;;;;1.88;1.33;;;;;;;;;;5070828;28;20603;-80
2023/11/03 12:55:46;;;;;;;2.70;1.60;;;;;;;;;;5073904;28;20032;-80
2023/11/03 12:58:17;;;;;;;6.82;1.48;;;10.60;64.10;;;;;;5073283;28;20383;-80
2023/11/03 13:00:48;;;;;;;2.10;1.40;;;;;;;;;;5072362;28;20399;-84
2023/11/03 13:03:15;;;;;;;1.90;0.95;;;;;;;;;;5067509;28;20040;-83
2023/11/03 13:05:43;;;;;;;2.03;1.35;;;;;;;;;;5073584;28;20038;-88
2023/11/03 13:08:10;;;;;;;;;;;10.50;66.30;;;;;;5075055;28;20520;-89
2023/11/03 13:10:38;;;;;;;2.42;1.50;;;;;;;;;;5075143;28;19912;-86
2023/11/03 13:13:05;;;;;;;1.33;1.10;;;;;;;;;;5072908;28;20412;-88
2023/11/03 13:15:31;;;;;;;0.93;0.90;;;;;;;;;;5070213;28;20044;-88
2023/11/03 13:17:58;;;;;;;2.97;1.10;;;;;;;;;;5078560;28;20056;-89
2023/11/03 13:20:24;;;;;;;2.20;1.40;;;;;;;;;;5075615;28;20496;-93
2023/11/03 13:22:52;;;;;;;1.63;0.98;;;10.70;65.40;;;;;;5075787;28;20025;-84
2023/11/03 13:25:20;;;;;;;1.42;0.90;;;10.80;66.00;;;;;;5071004;28;20029;-90
2023/11/03 13:27:46;;;;;;;1.50;0.90;;;;;;;;;;5074670;28;20021;-86
2023/11/03 13:30:12;;;;;;;1.88;1.33;;;11.00;66.30;;;;;;5072420;28;20043;-89
2023/11/03 13:32:41;;;;;;;1.88;1.00;;;11.10;66.50;;;;;;5075663;28;20056;-96
2023/11/03 13:35:08;;;;;;;1.35;0.93;;;;;;;;;;5070482;28;20047;-96
2023/11/03 13:37:34;;;;;;;1.50;1.05;;;;;;;;;;5073717;28;20043;-92
2023/11/03 13:40:00;;;;;;;0.82;0.82;;;;;;;;;;5076583;28;20487;-81
2023/11/03 13:42:27;;;;;;;1.08;0.98;;;;;;;;;;5070639;28;20050;-88
2023/11/03 13:44:53;;;;;;;1.40;1.00;;;;;;;;;;5068119;28;20588;-89
2023/11/03 13:47:19;;;;;;;4.30;0.80;;;;;;;;;;5071276;28;20040;-88
2023/11/03 13:49:45;;;;;;;2.42;1.10;;;;;;;;;;5079921;28;20033;-92
2023/11/03 13:52:11;;;;;;;1.40;1.30;;;;;;;;;;5074465;28;20044;-89
2023/11/03 13:54:37;;;;;;;1.63;0.95;;;;;;;;;;5072376;28;20024;-88
2023/11/03 13:57:06;;;;;;;1.02;0.90;;;;;;;;;;5079551;28;20036;-83
2023/11/03 13:59:33;;;;;;;2.33;1.33;;;;;;;;;;5062049;28;20019;-89
2023/11/03 14:01:59;;;;;;;0.77;0.77;;;;;;;;;;5078156;28;20036;-82
2023/11/03 14:04:25;;;;;;;6.28;1.05;;;;;;;;;;5076593;28;20024;-83
2023/11/03 14:06:52;;;;;;;1.25;1.13;;;;;;;;;;5078755;28;20074;-85
2023/11/03 14:09:25;;;;;;;1.92;0.90;;;;;;;;;;5075433;28;20024;-81
2023/11/03 14:11:52;;;;;;;0.68;0.68;;;;;;;;;;5075926;28;20063;-80